Time;durP1;ratioP1;P1;durP2;ratioP2;P2;SDS_P1;SDS_P2;PMS_P1;PMS_P2;Temp;Humidity;BMP_temperature;BMP_pressure;BME280_temperature;BME280_humidity;BME280_pressure;Samples;Min_cycle;Max_cycle;Signal;HPM_P1;HPM_P2
2023/07/08 00:01:13;;;;;;;6.50;3.90;;;;;;;16.65;100.00;103311.91;5016970;28;20831;-71
2023/07/08 00:03:39;;;;;;;6.30;4.20;;;;;;;15.59;100.00;103119.25;5016134;28;20223;-72
2023/07/08 00:06:11;;;;;;;6.23;4.00;;;;;;;16.36;100.00;103256.53;5016464;28;20428;-72
2023/07/08 00:08:36;;;;;;;5.37;3.70;;;;;;;16.09;100.00;103195.63;5018199;28;20188;-72
2023/07/08 00:11:09;;;;;;;4.13;3.60;;;;;;;16.80;100.00;103293.03;5017844;28;20428;-72
2023/07/08 00:13:35;;;;;;;4.40;3.37;;;;;;;15.97;100.00;103160.00;5015375;28;20961;-72
2023/07/08 00:16:00;;;;;;;6.00;3.97;;;;;;;16.59;100.00;103289.06;5019238;28;20494;-72
2023/07/08 00:18:25;;;;;;;7.03;4.17;;;;;;;15.77;100.00;103143.34;5017376;28;20197;-72
2023/07/08 00:20:51;;;;;;;6.43;3.70;;;;;;;16.34;100.00;103252.31;5015295;28;20183;-72
2023/07/08 00:23:21;;;;;;;5.60;3.90;;;;;;;16.45;100.00;103289.84;5016069;28;20369;-72
2023/07/08 00:25:47;;;;;;;6.33;3.50;;;;;;;15.64;100.00;103134.09;5032394;28;20272;-72
2023/07/08 00:28:16;;;;;;;4.87;3.23;;;;;;;15.46;100.00;103132.47;5021380;28;20559;-72
2023/07/08 00:30:42;;;;;;;4.07;3.40;;;;;;;15.86;100.00;103190.16;5014370;28;20188;-72
2023/07/08 00:33:07;;;;;;;5.00;3.80;;;;;;;15.84;100.00;103186.78;5023274;28;21030;-72
2023/07/08 00:35:43;;;;;;;5.70;3.90;;;;;;;16.36;100.00;103278.22;5020991;28;20304;-72
2023/07/08 00:38:20;;;;;;;5.77;3.70;;;;;;;16.65;100.00;103274.81;5021315;28;20192;-72
2023/07/08 00:40:51;;;;;;;5.40;4.07;;;;;;;15.56;100.00;103154.75;5021191;28;20467;-73
2023/07/08 00:43:24;;;;;;;4.27;3.53;;;;;;;15.23;100.00;103074.78;5018188;28;20467;-73
2023/07/08 00:45:58;;;;;;;7.40;4.40;;;;;;;15.42;100.00;103119.47;5019083;28;20431;-73
2023/07/08 00:48:28;;;;;;;5.70;4.00;;;;;;;16.12;100.00;103251.28;5022335;28;20477;-73
2023/07/08 00:50:54;;;;;;;7.20;3.90;;;;;;;15.73;100.00;103157.41;5018890;28;20487;-73
2023/07/08 00:53:28;;;;;;;5.93;3.47;;;;;;;16.59;100.00;103269.28;5017216;28;20546;-73
2023/07/08 00:56:32;;;;;;;6.43;4.00;;;;;;;14.72;100.00;102949.97;5019278;28;20274;-73
2023/07/08 00:59:02;;;;;;;6.00;4.50;;;;;;;15.84;100.00;103112.88;5018224;28;20439;-72
2023/07/08 01:01:32;;;;;;;4.93;3.70;;;;;;;16.70;100.00;103258.03;5018065;28;20404;-72
2023/07/08 01:04:03;;;;;;;5.80;4.30;;;;;;;16.59;100.00;103253.03;5021073;28;20454;-72
2023/07/08 01:06:33;;;;;;;8.30;4.20;;;;;;;15.77;100.00;103108.19;5018227;28;20795;-72
2023/07/08 01:09:02;;;;;;;5.90;4.10;;;;;;;16.45;100.00;103243.78;5019491;28;20439;-72
2023/07/08 01:11:29;;;;;;;6.57;4.10;;;;;;;15.92;100.00;103129.06;5018109;28;20451;-72
2023/07/08 01:13:56;;;;;;;5.73;4.00;;;;;;;16.75;100.00;103225.81;5017492;28;20455;-72
2023/07/08 01:16:22;;;;;;;10.63;4.53;;;;;;;15.63;100.00;103056.66;5019319;28;20583;-72
2023/07/08 01:18:52;;;;;;;5.60;3.63;;;;;;;16.13;100.00;103140.06;5019271;28;20440;-72
2023/07/08 01:21:38;;;;;;;4.80;3.87;;;;;;;16.69;100.00;103213.81;5034627;28;20431;-72
2023/07/08 01:24:07;;;;;;;4.80;3.37;;;;;;;16.04;100.00;103136.59;5019527;28;20519;-73
2023/07/08 01:26:35;;;;;;;6.87;3.80;;;;;;;16.78;100.00;103186.66;5018818;28;20427;-72
2023/07/08 01:29:02;;;;;;;6.47;4.40;;;;;;;15.63;100.00;103073.72;5018815;28;20494;-72
2023/07/08 01:31:28;;;;;;;5.70;3.70;;;;;;;16.29;100.00;103144.56;5013867;28;20438;-71
2023/07/08 01:33:54;;;;;;;8.60;3.90;;;;;;;16.59;100.00;103215.09;5015006;28;20443;-72
2023/07/08 01:36:20;;;;;;;4.30;3.40;;;;;;;16.70;100.00;103217.38;5019761;28;21006;-72
2023/07/08 01:38:46;;;;;;;4.77;4.00;;;;;;;15.45;100.00;103017.22;5015268;28;20208;-73
2023/07/08 01:41:13;;;;;;;8.50;3.73;;;;;;;16.48;100.00;103175.72;5016448;28;20443;-72
2023/07/08 01:43:39;;;;;;;6.63;3.67;;;;;;;15.64;100.00;103039.41;5017863;28;20200;-72
2023/07/08 01:46:15;;;;;;;6.80;3.53;;;;;;;16.56;100.00;103204.63;5018312;28;20439;-72
2023/07/08 01:48:46;;;;;;;4.33;3.30;;;;;;;15.75;100.00;103039.84;5022476;28;20219;-72
2023/07/08 01:51:12;;;;;;;7.93;4.20;;;;;;;15.59;100.00;103019.16;5015805;28;20482;-72
2023/07/08 01:53:40;;;;;;;6.37;4.00;;;;;;;15.67;100.00;103047.16;5015246;28;21008;-72
2023/07/08 01:56:07;;;;;;;7.53;4.47;;;;;;;15.40;100.00;103040.41;5015417;28;20195;-72
2023/07/08 01:58:33;;;;;;;8.20;4.13;;;;;;;15.11;100.00;103047.28;5017435;28;20477;-72
2023/07/08 02:00:58;;;;;;;7.13;4.50;;;;;;;15.62;100.00;103072.03;5015328;28;20846;-72
2023/07/08 02:03:25;;;;;;;7.43;4.33;;;;;;;15.54;100.00;103059.41;5020268;28;20299;-72
2023/07/08 02:05:51;;;;;;;7.67;4.27;;;;;;;15.85;100.00;103109.97;5017052;28;20188;-72
2023/07/08 02:08:16;;;;;;;5.30;3.83;;;;;;;15.80;100.00;103101.56;5014714;28;20442;-72
2023/07/08 02:10:44;;;;;;;6.17;4.20;;;;;;;14.84;100.00;102962.09;5015149;28;20184;-72
2023/07/08 02:13:09;;;;;;;7.07;4.10;;;;;;;16.33;100.00;103208.16;5014011;28;20217;-72
2023/07/08 02:15:35;;;;;;;6.80;4.27;;;;;;;15.96;100.00;103161.00;5017011;28;20938;-73
2023/07/08 02:18:00;;;;;;;5.47;3.97;;;;;;;16.05;100.00;103175.31;5015768;28;20281;-73
2023/07/08 02:20:26;;;;;;;6.90;4.37;;;;;;;15.99;100.00;103152.50;5016619;28;20192;-72
2023/07/08 02:22:51;;;;;;;5.30;4.63;;;;;;;15.33;100.00;103046.50;5015460;28;20875;-72
2023/07/08 02:25:17;;;;;;;7.77;5.07;;;;;;;16.09;100.00;103209.16;5025021;28;20227;-72
2023/07/08 02:27:43;;;;;;;7.53;4.10;;;;;;;16.07;100.00;103210.34;5013821;28;20191;-72
2023/07/08 02:30:09;;;;;;;4.90;4.10;;;;;;;16.13;100.00;103193.38;5018970;28;20541;-72
2023/07/08 02:32:38;;;;;;;7.20;4.27;;;;;;;14.72;100.00;102979.69;5020436;28;20713;-73
2023/07/08 02:35:05;;;;;;;6.60;4.53;;;;;;;16.24;100.00;103192.97;5015517;28;20888;-73
2023/07/08 02:37:30;;;;;;;7.00;4.57;;;;;;;15.98;100.00;103196.84;5014304;28;20472;-73
2023/07/08 02:39:56;;;;;;;6.90;4.90;;;;;;;15.00;100.00;103078.22;5014585;28;20439;-73
2023/07/08 02:42:21;;;;;;;7.13;4.30;;;;;;;15.48;100.00;103127.75;5015128;28;20732;-72
2023/07/08 02:44:47;;;;;;;6.90;5.17;;;;;;;15.06;100.00;103039.69;5015587;28;20184;-72
2023/07/08 02:47:12;;;;;;;9.33;4.97;;;;;;;15.86;100.00;103192.03;5026093;28;20181;-72
2023/07/08 02:49:38;;;;;;;4.90;4.40;;;;;;;14.88;100.00;103037.22;5013494;28;20201;-73
2023/07/08 02:52:04;;;;;;;6.13;4.47;;;;;;;15.14;100.00;103050.47;5012979;28;20192;-73
2023/07/08 02:54:29;;;;;;;6.80;4.97;;;;;;;15.69;100.00;103151.50;5026051;28;20192;-72
2023/07/08 02:56:54;;;;;;;5.97;4.67;;;;;;;14.61;100.00;102970.97;5010869;28;20205;-72
2023/07/08 02:59:20;;;;;;;5.10;4.57;;;;;;;15.30;100.00;103117.16;5012461;28;20204;-72
2023/07/08 03:01:46;;;;;;;6.83;5.40;;;;;;;15.96;100.00;103173.69;5010036;28;20195;-73
2023/07/08 03:04:12;;;;;;;8.17;5.03;;;;;;;15.99;100.00;103148.97;5015779;28;20497;-72
2023/07/08 03:06:45;;;;;;;6.00;4.60;;;;;;;15.03;100.00;103048.16;5018745;28;20445;-73
2023/07/08 03:09:12;;;;;;;7.63;5.03;;;;;;;15.92;100.00;103178.63;5028560;28;20892;-73
2023/07/08 03:11:39;;;;;;;6.60;4.90;;;;;;;15.75;100.00;103177.00;5012133;28;20442;-72
2023/07/08 03:14:05;;;;;;;9.93;4.97;;;;;;;15.15;100.00;103090.00;5013755;28;20467;-73
2023/07/08 03:16:31;;;;;;;6.63;4.50;;;;;;;15.82;100.00;103176.16;5010282;28;20551;-72
2023/07/08 03:18:57;;;;;;;8.30;4.73;;;;;;;14.68;100.00;103004.34;5008634;28;20575;-72
2023/07/08 03:21:22;;;;;;;8.67;5.70;;;;;;;15.08;100.00;103051.19;5010168;28;20284;-72
2023/07/08 03:23:49;;;;;;;7.27;5.30;;;;;;;15.80;100.00;103164.66;5010089;28;20213;-73
2023/07/08 03:26:17;;;;;;;7.00;5.17;;;;;;;15.85;100.00;103172.22;5009645;28;20211;-73
2023/07/08 03:28:43;;;;;;;7.23;5.50;;;;;;;15.71;100.00;103156.75;5018209;28;20438;-73
2023/07/08 03:31:09;;;;;;;9.50;4.87;;;;;;;15.63;100.00;103143.22;5005491;28;20958;-73
2023/07/08 03:33:35;;;;;;;6.83;5.30;;;;;;;14.75;100.00;103006.38;5009772;28;20267;-73
2023/07/08 03:36:01;;;;;;;8.30;5.30;;;;;;;15.03;100.00;103039.19;5011011;28;20455;-73
2023/07/08 03:38:27;;;;;;;8.73;5.90;;;;;;;15.73;100.00;103169.06;5011408;28;20204;-73
2023/07/08 03:40:52;;;;;;;7.67;5.70;;;;;;;15.69;100.00;103167.75;5010903;28;20471;-73
2023/07/08 03:43:18;;;;;;;6.13;5.53;;;;;;;15.76;100.00;103182.22;5007790;28;20213;-73
2023/07/08 03:45:44;;;;;;;9.30;5.47;;;;;;;14.91;100.00;103057.66;5009105;28;20196;-73
2023/07/08 03:48:12;;;;;;;8.20;5.40;;;;;;;15.39;100.00;103117.97;5010925;28;20185;-73
2023/07/08 03:50:38;;;;;;;7.57;5.20;;;;;;;15.09;100.00;103074.47;5010987;28;20439;-72
2023/07/08 03:53:04;;;;;;;7.97;5.13;;;;;;;14.83;100.00;103017.16;5010836;28;20471;-73
2023/07/08 03:55:30;;;;;;;7.43;5.33;;;;;;;15.59;100.00;103167.94;5008647;28;20533;-72
2023/07/08 03:57:56;;;;;;;7.40;6.03;;;;;;;14.97;100.00;103061.53;5016633;28;20208;-72
2023/07/08 04:00:21;;;;;;;9.43;6.20;;;;;;;15.63;100.00;103159.47;5010517;28;20189;-72
2023/07/08 04:02:47;;;;;;;10.50;6.17;;;;;;;15.75;100.00;103163.50;5009427;28;20284;-72
2023/07/08 04:05:15;;;;;;;9.00;5.30;;;;;;;15.88;100.00;103160.19;5019221;28;20224;-72
2023/07/08 04:07:41;;;;;;;6.70;5.50;;;;;;;15.94;100.00;103164.88;5010766;28;20448;-73
2023/07/08 04:10:07;;;;;;;9.30;6.30;;;;;;;14.69;100.00;102979.06;5011433;28;20450;-73
2023/07/08 04:12:33;;;;;;;9.20;5.83;;;;;;;14.90;100.00;102988.44;5009796;28;20223;-72
2023/07/08 04:14:58;;;;;;;6.90;5.67;;;;;;;15.92;100.00;103154.25;5008808;28;20446;-72
2023/07/08 04:17:24;;;;;;;7.20;5.87;;;;;;;15.83;100.00;103136.38;5028209;28;20209;-72
2023/07/08 04:19:50;;;;;;;8.73;6.80;;;;;;;16.03;100.00;103169.25;5008912;28;20656;-72
2023/07/08 04:22:16;;;;;;;8.60;5.40;;;;;;;14.94;100.00;102970.84;5011644;28;20901;-72
2023/07/08 04:24:41;;;;;;;9.43;5.77;;;;;;;16.05;100.00;103159.06;5018517;28;20443;-72
2023/07/08 04:27:16;;;;;;;8.03;5.83;;;;;;;15.95;100.00;103140.38;5015334;28;20436;-73
2023/07/08 04:29:42;;;;;;;10.97;6.40;;;;;;;15.72;100.00;103105.16;5015589;28;20250;-72
2023/07/08 04:32:08;;;;;;;9.33;5.50;;;;;;;15.21;100.00;103033.53;5019771;28;20467;-72
2023/07/08 04:34:33;;;;;;;6.57;5.87;;;;;;;16.12;100.00;103164.63;5013573;28;20478;-72
2023/07/08 04:36:58;;;;;;;7.70;5.80;;;;;;;16.24;100.00;103157.78;5012286;28;20290;-72
2023/07/08 04:39:24;;;;;;;6.13;5.13;;;;;;;16.33;100.00;103151.28;5013744;28;20258;-73
2023/07/08 04:41:49;;;;;;;6.70;5.07;;;;;;;15.47;100.00;103030.53;5012854;28;20193;-72
2023/07/08 04:44:18;;;;;;;9.90;5.50;;;;;;;15.71;100.00;103033.13;5013158;28;20217;-73
2023/07/08 04:46:50;;;;;;;8.10;5.63;;;;;;;15.40;100.00;102997.97;5012752;28;20192;-73
2023/07/08 04:49:17;;;;;;;8.30;5.67;;;;;;;16.54;100.00;103156.00;5022206;28;20447;-73
2023/07/08 04:51:43;;;;;;;6.77;4.70;;;;;;;15.82;100.00;103043.53;5015429;28;20415;-73
2023/07/08 04:54:10;;;;;;;7.00;5.10;;;;;;;15.87;100.00;103034.03;5010535;28;20493;-73
2023/07/08 04:56:48;;;;;;;5.90;5.00;;;;;;;16.69;100.00;103151.50;5015690;28;20497;-72
2023/07/08 04:59:16;;;;;;;9.30;4.80;;;;;;;16.58;100.00;103124.00;5008557;28;20440;-73
2023/07/08 05:01:42;;;;;;;6.13;4.50;;;;;;;15.94;100.00;103024.16;5008068;28;20443;-72
2023/07/08 05:04:09;;;;;;;7.77;4.90;;;;;;;15.92;100.00;102999.16;5017028;28;20460;-72
2023/07/08 05:06:35;;;;;;;8.10;5.03;;;;;;;16.41;100.00;103064.53;5018527;28;20442;-73
2023/07/08 05:09:02;;;;;;;8.40;4.90;;;;;;;16.72;100.00;103079.81;5008207;28;20497;-72
2023/07/08 05:11:28;;;;;;;7.17;4.83;;;;;;;16.32;100.00;103006.06;5011392;28;20188;-72
2023/07/08 05:13:54;;;;;;;9.27;5.23;;;;;;;16.48;100.00;103011.31;5010237;28;21355;-72
2023/07/08 05:16:19;;;;;;;7.03;4.73;;;;;;;17.29;100.00;103097.34;5014221;28;20467;-73
2023/07/08 05:18:45;;;;;;;7.23;4.83;;;;;;;16.52;100.00;102975.72;5024641;28;20279;-72
2023/07/08 05:21:11;;;;;;;8.10;4.93;;;;;;;17.37;100.00;103089.94;5024747;28;20188;-72
2023/07/08 05:23:37;;;;;;;9.63;4.67;;;;;;;16.84;100.00;102978.09;5018102;28;20470;-72
2023/07/08 05:26:04;;;;;;;6.43;4.60;;;;;;;17.52;100.00;103073.63;5026030;28;20195;-72
2023/07/08 05:28:30;;;;;;;4.90;3.87;;;;;;;16.60;100.00;102929.56;5020170;28;20193;-72
2023/07/08 05:30:56;;;;;;;5.03;3.87;;;;;;;17.55;100.00;103077.84;5017685;28;20444;-72
2023/07/08 05:33:27;;;;;;;5.43;3.90;;;;;;;17.60;100.00;103080.81;5020104;28;20444;-72
2023/07/08 05:35:53;;;;;;;7.43;4.17;;;;;;;17.54;100.00;103065.31;5019114;28;20530;-72
2023/07/08 05:38:20;;;;;;;7.17;4.00;;;;;;;17.66;100.00;103098.22;5020310;28;20519;-72
2023/07/08 05:40:50;;;;;;;5.43;3.90;;;;;;;16.98;100.00;102987.25;5024208;28;20624;-72
2023/07/08 05:43:17;;;;;;;5.87;4.43;;;;;;;17.75;100.00;103078.06;5015365;28;21579;-72
2023/07/08 05:45:42;;;;;;;6.17;4.80;;;;;;;17.82;100.00;103070.88;5019619;28;20805;-72
2023/07/08 05:48:08;;;;;;;6.10;4.00;;;;;;;17.53;100.00;102985.78;5016271;28;20427;-72
2023/07/08 05:50:33;;;;;;;8.03;4.40;;;;;;;17.52;100.00;102973.22;5017334;28;20299;-73
2023/07/08 05:52:58;;;;;;;5.30;3.73;;;;;;;17.42;100.00;102950.19;5018078;28;20201;-72
2023/07/08 05:55:24;;;;;;;9.37;4.60;;;;;;;17.16;100.00;102900.06;5017802;28;20201;-72
2023/07/08 05:57:49;;;;;;;5.97;3.53;;;;;;;17.90;100.00;103002.03;5017046;28;20236;-72
2023/07/08 06:00:15;;;;;;;5.20;3.83;;;;;;;18.18;100.00;103023.78;5016699;28;20245;-73
2023/07/08 06:02:40;;;;;;;5.57;3.57;;;;;;;18.09;100.00;102989.66;5016832;28;20255;-72
2023/07/08 06:05:06;;;;;;;7.67;4.20;;;;;;;18.13;100.00;103002.63;5018998;28;20692;-72
2023/07/08 06:07:32;;;;;;;6.20;3.57;;;;;;;18.31;100.00;103026.59;5018184;28;20187;-72
2023/07/08 06:09:57;;;;;;;4.57;4.07;;;;;;;17.57;100.00;102889.38;5016192;28;20189;-72
2023/07/08 06:12:23;;;;;;;6.40;3.40;;;;;;;18.28;100.00;102988.94;5021774;28;20454;-73
2023/07/08 06:14:49;;;;;;;7.13;4.03;;;;;;;17.57;100.00;102842.41;5020705;28;20195;-72
2023/07/08 06:17:16;;;;;;;4.03;3.43;;;;;;;17.67;100.00;102856.47;5013906;28;20475;-72
2023/07/08 06:19:41;;;;;;;5.03;3.47;;;;;;;18.43;100.00;102950.84;5020923;28;20188;-72
2023/07/08 06:22:07;;;;;;;5.17;3.70;;;;;;;18.10;100.00;102904.44;5016003;28;20453;-72
2023/07/08 06:24:32;;;;;;;5.40;3.33;;;;;;;18.39;100.00;102961.25;5014955;28;20197;-72
2023/07/08 06:26:57;;;;;;;4.60;3.67;;;;;;;18.15;100.00;102885.66;5013736;28;20195;-72
2023/07/08 06:29:24;;;;;;;8.10;3.90;;;;;;;17.95;100.00;102831.22;5013219;28;20188;-72
2023/07/08 06:31:50;;;;;;;4.93;3.30;;;;;;;18.74;100.00;102940.34;5014016;28;20185;-72
2023/07/08 06:34:15;;;;;;;3.87;3.30;;;;;;;18.14;100.00;102830.50;5012663;28;20505;-72
2023/07/08 06:36:41;;;;;;;6.87;3.27;;;;;;;18.09;100.00;102818.56;5014011;28;20209;-72
2023/07/08 06:39:08;;;;;;;5.47;3.50;;;;;;;18.65;100.00;102892.59;5013043;28;20663;-72
2023/07/08 06:41:34;;;;;;;4.77;3.37;;;;;;;18.93;100.00;102940.63;5010481;28;20184;-72
2023/07/08 06:44:00;;;;;;;5.40;3.30;;;;;;;19.02;100.00;102925.81;5011198;28;20486;-72
2023/07/08 06:46:25;;;;;;;3.97;3.20;;;;;;;18.30;100.00;102775.84;5016477;28;20185;-72
2023/07/08 06:48:50;;;;;;;5.30;3.60;;;;;;;18.89;100.00;102863.22;5010045;28;20261;-72
2023/07/08 06:51:16;;;;;;;7.77;3.43;;;;;;;19.16;100.00;102904.94;5013339;28;20225;-72
2023/07/08 06:53:41;;;;;;;9.47;4.10;;;;;;;18.86;100.00;102860.91;5008009;28;20223;-73
2023/07/08 06:56:08;;;;;;;5.00;3.23;;;;;;;19.15;100.00;102884.19;5013941;28;20184;-72
2023/07/08 06:58:34;;;;;;;4.67;2.80;;;;;;;19.19;100.00;102870.00;5031932;28;20303;-72
2023/07/08 07:00:59;;;;;;;6.07;2.80;;;;;;;18.72;100.00;102779.31;5013018;28;20538;-72
2023/07/08 07:03:25;;;;;;;4.00;2.70;;;;;;;19.37;100.00;102876.72;5014752;28;20456;-72
2023/07/08 07:05:50;;;;;;;5.80;3.10;;;;;;;19.50;100.00;102887.59;5016640;28;20207;-72
2023/07/08 07:08:16;;;;;;;3.40;2.63;;;;;;;19.45;100.00;102905.59;5015020;28;20192;-72
2023/07/08 07:10:42;;;;;;;4.90;3.37;;;;;;;18.50;100.00;102731.59;5011975;28;20196;-72
2023/07/08 07:13:07;;;;;;;4.30;3.10;;;;;;;19.60;100.00;102868.13;5016956;28;20215;-72
2023/07/08 07:15:32;;;;;;;4.67;3.27;;;;;;;19.55;100.00;102848.84;5014218;28;20451;-72
2023/07/08 07:17:58;;;;;;;6.13;3.20;;;;;;;19.60;100.00;102811.81;5017563;28;20209;-72
2023/07/08 07:20:26;;;;;;;3.27;2.57;;;;;;;19.71;100.00;102796.75;5019596;28;20196;-72
2023/07/08 07:22:52;;;;;;;7.50;3.33;;;;;;;19.79;100.00;102720.28;5016328;28;20209;-72
2023/07/08 07:25:17;;;;;;;6.07;3.13;;;;;;;19.95;100.00;102647.31;5010280;28;20457;-72
2023/07/08 07:27:42;;;;;;;3.30;2.77;;;;;;;20.03;100.00;102584.41;5015881;28;20479;-72
2023/07/08 07:30:12;;;;;;;3.60;2.87;;;;;;;19.97;100.00;102586.13;5011881;28;20189;-72
2023/07/08 07:32:38;;;;;;;5.20;3.00;;;;;;;20.15;100.00;102604.44;5009959;28;20204;-72
2023/07/08 07:35:04;;;;;;;4.23;2.73;;;;;;;19.45;100.00;102426.66;5014685;28;20436;-71
2023/07/08 07:37:30;;;;;;;5.50;2.67;;;;;;;20.16;100.00;102508.03;5015311;28;20211;-72
2023/07/08 07:39:55;;;;;;;4.10;2.97;;;;;;;20.13;100.00;102524.00;5015474;28;20431;-72
2023/07/08 07:42:21;;;;;;;5.20;2.90;;;;;;;19.85;100.00;102446.28;5014448;28;20573;-72
2023/07/08 07:44:46;;;;;;;3.13;2.40;;;;;;;19.47;100.00;102367.38;5014085;28;20257;-71
2023/07/08 07:47:19;;;;;;;4.70;3.07;;;;;;;19.31;100.00;102339.69;5014689;28;20287;-71
2023/07/08 07:49:44;;;;;;;5.10;3.20;;;;;;;19.38;100.00;102335.03;4995433;28;20621;-72
2023/07/08 07:52:12;;;;;;;5.67;3.10;;;;;;;20.41;100.00;102447.25;4993327;28;20503;-71
2023/07/08 07:54:39;;;;;;;6.13;3.10;;;;;;;19.74;100.00;102381.66;4993686;28;20672;-72
2023/07/08 07:57:05;;;;;;;3.67;2.50;;;;;;;20.02;100.00;102362.97;4993700;28;20468;-73
2023/07/08 07:59:30;;;;;;;3.83;2.50;;;;;;;20.65;100.00;102408.19;4994743;28;20439;-72
2023/07/08 08:01:55;;;;;;;5.00;2.90;;;;;;;20.60;100.00;102355.41;4989315;28;20203;-73
2023/07/08 08:04:21;;;;;;;3.40;2.90;;;;;;;20.32;100.00;102288.66;4993656;28;20569;-72
2023/07/08 08:06:47;;;;;;;5.97;2.30;;;;;;;20.86;100.00;102387.81;5006185;28;20244;-72
2023/07/08 08:09:12;;;;;;;3.73;2.77;;;;;;;20.89;100.00;102375.63;4992441;28;20231;-73
2023/07/08 08:11:38;;;;;;;4.33;2.70;;;;;;;20.98;100.00;102372.34;4988463;28;20220;-73
2023/07/08 08:14:04;;;;;;;4.50;2.43;;;;;;;20.72;100.00;102321.72;4992131;28;20850;-74
2023/07/08 08:16:30;;;;;;;3.03;2.73;;;;;;;21.10;100.00;102344.25;4998189;28;20213;-73
2023/07/08 08:18:55;;;;;;;2.33;2.13;;;;;;;20.00;100.00;102170.91;4989933;28;20454;-73
2023/07/08 08:21:21;;;;;;;5.30;2.60;;;;;;;21.04;100.00;102315.19;4990684;28;20443;-71
2023/07/08 08:23:47;;;;;;;3.80;2.70;;;;;;;21.26;100.00;102353.66;5005471;28;20589;-72
2023/07/08 08:26:12;;;;;;;5.90;2.73;;;;;;;21.25;100.00;102341.09;4992825;28;20443;-71
2023/07/08 08:28:38;;;;;;;5.30;3.90;;;;;;;21.49;100.00;102326.44;4993004;28;20193;-71
2023/07/08 08:31:04;;;;;;;4.93;2.70;;;;;;;21.41;100.00;102281.25;4992505;28;20647;-71
2023/07/08 08:33:29;;;;;;;3.47;2.37;;;;;;;21.43;100.00;102284.53;5007228;28;20217;-72
2023/07/08 08:35:55;;;;;;;4.33;2.23;;;;;;;21.56;100.00;102293.59;4994232;28;20638;-73
2023/07/08 08:38:20;;;;;;;3.10;2.53;;;;;;;21.54;100.00;102247.41;4993841;28;20213;-73
2023/07/08 08:40:46;;;;;;;3.20;2.30;;;;;;;20.92;100.00;102162.44;4988865;28;20203;-73
2023/07/08 08:43:22;;;;;;;3.00;2.53;;;;;;;21.71;100.00;102288.47;4989745;28;20738;-73
2023/07/08 08:45:56;;;;;;;4.90;2.67;;;;;;;21.62;100.00;102211.56;5002661;28;20321;-72
2023/07/08 08:48:24;;;;;;;3.43;2.57;;;;;;;21.34;100.00;102146.75;4993863;28;20539;-72
2023/07/08 08:50:59;;;;;;;3.90;2.77;;;;;;;22.03;100.00;102233.44;4993214;28;20439;-72
2023/07/08 08:53:26;;;;;;;4.93;2.70;;;;;;;22.02;100.00;102220.88;5007106;28;21008;-72
2023/07/08 08:55:59;;;;;;;4.40;2.27;;;;;;;22.01;100.00;102219.19;4992747;28;20464;-72
2023/07/08 08:58:43;;;;;;;3.30;2.40;;;;;;;22.02;100.00;102218.13;4995933;28;20562;-72
2023/07/08 09:01:12;;;;;;;5.63;2.63;;;;;;;21.61;100.00;102133.47;4996429;28;20906;-73
2023/07/08 09:03:42;;;;;;;4.47;2.70;;;;;;;22.23;100.00;102236.63;4996185;28;20460;-73
2023/07/08 09:06:16;;;;;;;3.23;2.43;;;;;;;21.39;100.00;102092.31;4992927;28;20491;-72
2023/07/08 09:08:42;;;;;;;3.27;2.40;;;;;;;21.67;100.00;102112.53;4996728;28;20456;-72
2023/07/08 09:11:19;;;;;;;4.53;2.77;;;;;;;22.10;100.00;102144.81;4995670;28;20432;-72
2023/07/08 09:13:45;;;;;;;4.43;2.90;;;;;;;21.63;100.00;102041.19;5010915;28;20494;-73
2023/07/08 09:16:45;;;;;;;3.47;2.50;;;;;;;22.71;100.00;102182.53;4994688;28;20428;-72
2023/07/08 09:19:25;;;;;;;4.23;3.13;;;;;;;22.49;100.00;102160.56;4996584;28;20188;-72
2023/07/08 09:22:34;;;;;;;2.87;2.23;;;;;;;22.50;100.00;102149.34;4994133;28;20933;-73
2023/07/08 09:25:09;;;;;;;6.07;2.70;;;;;;;21.79;100.00;102046.97;4986516;28;20807;-71
2023/07/08 09:27:34;;;;;;;7.13;2.10;;;;;;;22.69;100.00;102165.56;4995898;28;20419;-73
2023/07/08 09:30:00;;;;;;;3.13;2.43;;;;;;;22.73;100.00;102153.84;4995927;28;20447;-73
2023/07/08 09:32:27;;;;;;;5.97;3.10;;;;;;;22.86;100.00;102128.09;4993656;28;20511;-73
2023/07/08 09:35:04;;;;;;;3.50;2.50;;;;;;;22.14;100.00;102016.72;4996120;28;20186;-73
2023/07/08 09:37:32;;;;;;;5.90;2.77;;;;;;;23.07;100.00;102131.16;4996471;28;20463;-73
2023/07/08 09:40:00;;;;;;;3.80;2.90;;;;;;;22.99;100.00;102111.34;4995882;28;20520;-73
2023/07/08 09:42:30;;;;;;;4.07;2.20;;;;;;;22.30;100.00;101979.53;4994419;28;20996;-74
2023/07/08 09:45:02;;;;;;;3.07;2.77;;;;;;;23.23;100.00;102116.63;5001948;28;20822;-74
2023/07/08 09:47:39;;;;;;;3.87;2.63;;;;;;;23.27;100.00;102081.34;4994215;28;20425;-74
2023/07/08 09:50:18;;;;;;;6.73;2.43;;;;;;;23.19;100.00;102075.22;5011645;28;20959;-74
2023/07/08 09:52:43;;;;;;;3.00;2.67;;;;;;;23.27;100.00;102062.19;4995978;28;20452;-74
2023/07/08 09:55:12;;;;;;;3.77;2.60;;;;;;;22.72;100.00;101960.75;4997545;28;20514;-74
2023/07/08 09:57:39;;;;;;;3.30;2.33;;;;;;;23.47;100.00;102084.34;4997132;28;20260;-74
2023/07/08 10:00:11;;;;;;;3.20;2.20;;;;;;;23.54;100.00;102075.91;4993192;28;20445;-74
2023/07/08 10:02:52;;;;;;;4.73;3.07;;;;;;;23.00;100.00;102027.38;4994952;28;20563;-74
2023/07/08 10:05:23;;;;;;;5.70;2.80;;;;;;;23.71;100.00;102071.22;4995238;28;20443;-73
2023/07/08 10:07:53;;;;;;;3.37;2.40;;;;;;;23.79;100.00;102068.03;4992207;28;20444;-73
2023/07/08 10:10:26;;;;;;;4.63;2.57;;;;;;;23.81;100.00;102054.91;4990405;28;20444;-73
2023/07/08 10:13:01;;;;;;;3.83;2.53;;;;;;;23.06;100.00;101960.69;5003605;28;20571;-73
2023/07/08 10:15:51;;;;;;;2.63;2.10;;;;;;;24.04;100.00;102056.50;4992934;28;20548;-73
2023/07/08 10:18:25;;;;;;;5.37;2.30;;;;;;;23.44;100.00;101962.47;4997651;28;20468;-76
2023/07/08 10:21:08;;;;;;;4.20;2.40;;;;;;;24.33;100.00;102056.22;4997012;28;20431;-77
2023/07/08 10:23:58;;;;;;;7.90;2.67;;;;;;;24.03;100.00;102038.38;4988705;28;20470;-74
2023/07/08 10:26:31;;;;;;;4.80;2.40;;;;;;;24.04;100.00;102033.72;4993227;28;20542;-74
2023/07/08 10:29:29;;;;;;;2.90;2.57;;;;;;;24.14;100.00;101985.31;4993364;28;20431;-73
2023/07/08 10:32:24;;;;;;;4.30;2.30;;;;;;;23.52;100.00;101868.09;4972250;28;20457;-74
2023/07/08 10:34:58;;;;;;;3.40;2.40;;;;;;;24.47;100.00;102005.31;4994965;28;20436;-74
2023/07/08 10:37:44;;;;;;;2.67;2.37;;;;;;;23.51;100.00;101871.06;4995036;28;21133;-73
2023/07/08 10:40:18;;;;;;;4.37;2.20;;;;;;;24.63;100.00;101986.22;4990035;28;20443;-75
2023/07/08 10:43:11;;;;;;;5.17;2.90;;;;;;;24.49;100.00;101983.94;4991576;28;20553;-75
2023/07/08 10:45:52;;;;;;;5.10;3.00;;;;;;;24.61;100.00;101982.91;4995516;28;20943;-76
2023/07/08 10:48:17;;;;;;;5.30;2.60;;;;;;;24.65;100.00;101975.78;4987717;28;20448;-76
2023/07/08 10:50:54;;;;;;;5.33;2.30;;;;;;;23.98;100.00;101843.78;4989897;28;20473;-78
2023/07/08 10:53:41;;;;;;;4.00;2.73;;;;;;;24.49;100.00;101936.50;4987222;28;20220;-77
2023/07/08 10:56:24;;;;;;;2.43;2.23;;;;;;;24.71;100.00;101955.56;4990191;28;21012;-77
2023/07/08 10:59:13;;;;;;;3.03;2.60;;;;;;;24.76;100.00;101908.91;4990484;28;20584;-77
2023/07/08 11:02:03;;;;;;;3.47;2.90;;;;;;;24.97;100.00;101954.56;4993845;28;20531;-76
2023/07/08 11:04:43;;;;;;;3.37;2.67;;;;;;;24.78;100.00;101920.47;4991296;28;20616;-76
2023/07/08 11:07:16;;;;;;;3.73;2.50;;;;;;;25.27;100.00;101947.53;4990123;28;20479;-77
2023/07/08 11:09:55;;;;;;;3.23;2.17;;;;;;;25.11;100.00;101943.91;5006223;28;20964;-76
2023/07/08 11:12:49;;;;;;;3.53;2.50;;;;;;;25.19;100.00;101920.63;4990809;28;20576;-75
2023/07/08 11:15:30;;;;;;;3.30;2.50;;;;;;;24.54;100.00;101797.47;4993200;28;20526;-75
2023/07/08 11:18:04;;;;;;;2.80;2.13;;;;;;;25.23;100.00;101895.09;4994691;28;20595;-76
2023/07/08 11:20:59;;;;;;;5.33;3.07;;;;;;;24.04;100.00;101740.50;4994562;28;20983;-76
2023/07/08 11:24:07;;;;;;;2.97;2.10;;;;;;;25.44;100.00;101909.69;4990563;28;20546;-75
2023/07/08 11:26:58;;;;;;;4.30;2.70;;;;;;;25.50;100.00;101907.75;4954258;28;20446;-77